Terminal Aerodrome Forecast
Issued by NWS Brownsville, TX

Home | Current Version | Previous Version | Text Only | Print | Product List | Glossary On
Versions: 1 2 3 4 5 6 7 8 9 10 11 12 13
000
FTUS44 KBRO 281735
TAFMFE
TAF
KMFE 281735Z 2818/2918 10010KT P6SM SCT040
     FM290600 VRB03KT P6SM FEW025
     FM291600 12006KT P6SM SCT040=

USA.gov is the U.S. government's official web portal to all federal, state and local government web resources and services.